Time;durP1;ratioP1;P1;durP2;ratioP2;P2;SDS_P1;SDS_P2;PMS_P1;PMS_P2;Temp;Humidity;BMP_temperature;BMP_pressure;BME280_temperature;BME280_humidity;BME280_pressure;Samples;Min_cycle;Max_cycle;Signal;HPM_P1;HPM_P2
2023/01/04 00:01:25;;;;;;;13.80;9.97;;;7.00;99.90;;;;;;5052068;28;20174;-69
2023/01/04 00:03:51;;;;;;;10.07;8.20;;;6.80;99.90;;;;;;5051317;28;20208;-69
2023/01/04 00:06:17;;;;;;;10.47;8.30;;;6.80;99.90;;;;;;5051894;28;20234;-69
2023/01/04 00:08:42;;;;;;;10.03;8.80;;;6.90;99.90;;;;;;5052055;28;20247;-69
2023/01/04 00:11:14;;;;;;;10.20;9.20;;;6.90;99.90;;;;;;5051971;28;20748;-69
2023/01/04 00:13:40;;;;;;;13.60;8.43;;;6.90;99.90;;;;;;5055827;28;20555;-69
2023/01/04 00:16:09;;;;;;;10.50;9.43;;;6.80;99.90;;;;;;5056170;28;20405;-70
2023/01/04 00:18:36;;;;;;;9.87;8.80;;;6.70;99.90;;;;;;5053395;28;20639;-68
2023/01/04 00:21:13;;;;;;;9.50;8.60;;;6.70;99.90;;;;;;5055432;28;20901;-70
2023/01/04 00:23:40;;;;;;;8.63;7.73;;;6.60;99.90;;;;;;5055933;28;20418;-69
2023/01/04 00:26:08;;;;;;;8.93;8.10;;;6.50;99.90;;;;;;5055991;28;20724;-69
2023/01/04 00:28:33;;;;;;;8.90;8.10;;;6.50;99.90;;;;;;5054529;28;20401;-69
2023/01/04 00:31:07;;;;;;;10.30;8.60;;;6.50;99.90;;;;;;5054397;28;20912;-70
2023/01/04 00:33:32;;;;;;;9.03;8.17;;;6.60;99.90;;;;;;5055952;28;20241;-69
2023/01/04 00:36:03;;;;;;;8.23;7.47;;;6.70;99.90;;;;;;5055291;28;20405;-69
2023/01/04 00:38:28;;;;;;;10.10;9.10;;;6.70;99.90;;;;;;5056156;28;20174;-69
2023/01/04 00:40:54;;;;;;;9.63;8.60;;;6.60;99.90;;;;;;5055649;28;20436;-69
2023/01/04 00:43:19;;;;;;;10.23;8.43;;;6.60;99.90;;;;;;5055832;28;20190;-69
2023/01/04 00:45:45;;;;;;;9.73;8.77;;;6.50;99.90;;;;;;5055511;28;20201;-69
2023/01/04 00:48:11;;;;;;;9.80;8.90;;;6.50;99.90;;;;;;5055618;28;20245;-69
2023/01/04 00:50:36;;;;;;;9.70;8.77;;;6.60;99.90;;;;;;5055120;28;20184;-69
2023/01/04 00:53:02;;;;;;;9.90;8.87;;;6.60;99.90;;;;;;5055536;28;20179;-69
2023/01/04 00:55:29;;;;;;;8.13;7.30;;;6.50;99.90;;;;;;5055567;28;20166;-69
2023/01/04 00:57:54;;;;;;;7.70;7.00;;;6.40;99.90;;;;;;5054361;28;20671;-69
2023/01/04 01:00:20;;;;;;;9.30;8.40;;;6.50;99.90;;;;;;5055793;28;20414;-68
2023/01/04 01:02:45;;;;;;;7.43;6.63;;;6.30;99.90;;;;;;5055184;28;20179;-69
2023/01/04 01:05:11;;;;;;;7.63;6.83;;;6.20;99.90;;;;;;5055098;28;20224;-69
2023/01/04 01:07:36;;;;;;;9.27;7.37;;;6.20;99.90;;;;;;5055417;28;20172;-69
2023/01/04 01:10:03;;;;;;;7.40;6.70;;;6.20;99.90;;;;;;5053933;28;20257;-69
2023/01/04 01:12:28;;;;;;;7.43;6.73;;;6.40;99.90;;;;;;5055484;28;20163;-69
2023/01/04 01:14:54;;;;;;;7.53;6.40;;;6.50;99.90;;;;;;5039920;28;20480;-69
2023/01/04 01:17:19;;;;;;;7.30;6.60;;;6.60;99.90;;;;;;5034244;28;20259;-69
2023/01/04 01:19:46;;;;;;;7.40;6.77;;;6.60;99.90;;;;;;5043659;28;20190;-69
2023/01/04 01:22:11;;;;;;;6.10;5.50;;;6.70;99.90;;;;;;5055557;28;20636;-68
2023/01/04 01:24:37;;;;;;;7.57;6.80;;;6.80;99.90;;;;;;5054293;28;20479;-68
2023/01/04 01:27:03;;;;;;;7.70;6.90;;;6.80;99.90;;;;;;5055374;28;20419;-68
2023/01/04 01:29:28;;;;;;;8.50;7.30;;;6.70;99.90;;;;;;5055371;28;20182;-68
2023/01/04 01:31:54;;;;;;;8.00;7.20;;;6.60;99.90;;;;;;5055529;28;20261;-69
2023/01/04 01:34:19;;;;;;;6.57;5.93;;;6.60;99.90;;;;;;5051165;28;20198;-68
2023/01/04 01:36:45;;;;;;;8.23;7.40;;;6.50;99.90;;;;;;5035602;28;20576;-69
2023/01/04 01:39:11;;;;;;;8.03;7.23;;;6.50;99.90;;;;;;5035557;28;20175;-69
2023/01/04 01:41:36;;;;;;;8.23;7.43;;;6.50;99.90;;;;;;5035220;28;20177;-69
2023/01/04 01:44:39;;;;;;;7.50;6.70;;;6.40;99.90;;;;;;5035139;28;20199;-68
2023/01/04 01:47:09;;;;;;;7.33;6.63;;;6.40;99.90;;;;;;5035461;28;20167;-68
2023/01/04 01:49:36;;;;;;;7.37;5.87;;;6.30;99.90;;;;;;5042680;28;20495;-68
2023/01/04 01:52:05;;;;;;;7.83;7.13;;;6.30;99.90;;;;;;5055043;28;20916;-68
2023/01/04 01:54:47;;;;;;;7.50;6.80;;;6.40;99.90;;;;;;5054716;28;20425;-68
2023/01/04 01:57:16;;;;;;;8.13;6.97;;;6.30;99.90;;;;;;5055010;28;20511;-68
2023/01/04 01:59:44;;;;;;;8.07;7.27;;;6.30;99.90;;;;;;5054871;28;20921;-68
2023/01/04 02:02:10;;;;;;;8.23;7.03;;;6.30;99.90;;;;;;5054629;28;20451;-68
2023/01/04 02:04:39;;;;;;;7.10;6.40;;;5.90;99.90;;;;;;5054035;28;20469;-68
2023/01/04 02:07:05;;;;;;;9.60;7.60;;;6.10;99.90;;;;;;5054656;28;20834;-68
2023/01/04 02:09:32;;;;;;;8.30;6.43;;;6.10;99.90;;;;;;5054305;28;20710;-68
2023/01/04 02:11:57;;;;;;;8.70;7.80;;;6.10;99.90;;;;;;5052973;28;20448;-68
2023/01/04 02:14:26;;;;;;;8.20;7.40;;;5.80;99.90;;;;;;5054910;28;20441;-69
2023/01/04 02:17:04;;;;;;;6.37;5.77;;;5.80;99.90;;;;;;5054122;28;20205;-70
2023/01/04 02:19:36;;;;;;;6.27;5.67;;;5.80;99.90;;;;;;5052427;28;20481;-69
2023/01/04 02:22:33;;;;;;;6.90;5.90;;;5.80;99.90;;;;;;5054170;28;20440;-69
2023/01/04 02:25:07;;;;;;;7.00;6.30;;;5.80;99.90;;;;;;5053735;28;20453;-69
2023/01/04 02:27:41;;;;;;;7.53;6.70;;;5.70;99.90;;;;;;5054038;28;20814;-69
2023/01/04 02:30:19;;;;;;;7.33;6.57;;;5.70;99.90;;;;;;5054182;28;20863;-67
2023/01/04 02:33:01;;;;;;;6.93;6.30;;;5.70;99.90;;;;;;5053535;28;20381;-69
2023/01/04 02:35:35;;;;;;;7.20;6.60;;;5.60;99.90;;;;;;5053178;28;20394;-69
2023/01/04 02:38:19;;;;;;;8.20;6.20;;;5.60;99.90;;;;;;5052257;28;20408;-69
2023/01/04 02:40:51;;;;;;;6.30;5.60;;;5.60;99.90;;;;;;5053741;28;20492;-69
2023/01/04 02:46:29;;;;;;;7.00;6.30;;;5.70;99.90;;;;;;5053747;28;20380;-69
2023/01/04 02:51:45;;;;;;;6.37;5.77;;;5.80;99.90;;;;;;5054040;28;20489;-69
2023/01/04 02:54:19;;;;;;;7.60;6.40;;;5.80;99.90;;;;;;5052257;28;20957;-68
2023/01/04 02:57:07;;;;;;;5.43;4.90;;;5.80;99.90;;;;;;5052067;28;20531;-69
2023/01/04 02:59:52;;;;;;;5.80;5.20;;;6.00;99.90;;;;;;5051989;28;20912;-68
2023/01/04 03:08:58;;;;;;;5.80;5.13;;;6.10;99.90;;;;;;5053201;28;20384;-69
2023/01/04 03:14:26;;;;;;;6.07;5.57;;;6.20;99.90;;;;;;5033821;28;20765;-68
2023/01/04 03:16:54;;;;;;;6.30;5.10;;;6.20;99.90;;;;;;5033255;28;20398;-68
2023/01/04 03:19:50;;;;;;;6.90;6.20;;;6.20;99.90;;;;;;5036108;28;20474;-69
2023/01/04 03:35:21;;;;;;;5.13;4.70;;;6.10;99.90;;;;;;5052735;28;20551;-69
2023/01/04 03:36:18;;;;;;;5.00;4.50;;;6.20;99.90;;;;;;5051626;28;20508;-69
2023/01/04 03:50:52;;;;;;;5.13;4.63;;;6.10;99.90;;;;;;4996594;28;20511;-70
2023/01/04 03:53:19;;;;;;;4.40;4.00;;;6.10;99.90;;;;;;5012628;28;20419;-69
2023/01/04 03:55:47;;;;;;;5.20;3.93;;;6.20;99.90;;;;;;5012621;28;20403;-69
2023/01/04 03:58:13;;;;;;;5.40;4.23;;;6.20;99.90;;;;;;5012362;28;20418;-70
2023/01/04 04:00:39;;;;;;;4.07;3.77;;;6.20;99.90;;;;;;5012325;28;20827;-69
2023/01/04 04:03:06;;;;;;;3.80;3.20;;;6.30;99.90;;;;;;5012131;28;20443;-69
2023/01/04 04:08:28;;;;;;;3.90;3.50;;;6.50;99.90;;;;;;5012871;28;20391;-68
2023/01/04 04:10:56;;;;;;;3.80;3.40;;;6.60;99.90;;;;;;5012103;28;20399;-70
2023/01/04 04:13:22;;;;;;;4.20;3.80;;;6.70;99.90;;;;;;5012456;28;20910;-68
2023/01/04 04:15:48;;;;;;;4.87;3.73;;;6.80;99.90;;;;;;5024064;28;20436;-68
2023/01/04 04:18:13;;;;;;;3.30;3.00;;;6.80;99.90;;;;;;5051998;28;20784;-68
2023/01/04 04:20:39;;;;;;;3.53;3.23;;;6.90;99.90;;;;;;5051099;28;20171;-68
2023/01/04 04:23:04;;;;;;;3.90;3.50;;;7.00;99.90;;;;;;5051692;28;20662;-68
2023/01/04 04:25:30;;;;;;;3.43;3.07;;;6.90;99.90;;;;;;5051008;28;20284;-67
2023/01/04 04:27:56;;;;;;;3.07;2.77;;;7.00;99.90;;;;;;5051769;28;20200;-68
2023/01/04 04:30:21;;;;;;;4.43;2.70;;;7.10;99.90;;;;;;5051963;28;20536;-68
2023/01/04 04:32:47;;;;;;;3.40;3.10;;;7.10;99.90;;;;;;5052027;28;20245;-68
2023/01/04 04:35:12;;;;;;;3.33;2.50;;;7.20;99.90;;;;;;5051829;28;20174;-68
2023/01/04 04:37:38;;;;;;;3.13;2.83;;;7.30;99.90;;;;;;5052076;28;20262;-68
2023/01/04 04:40:05;;;;;;;3.70;2.80;;;7.40;99.90;;;;;;5052378;28;20168;-69
2023/01/04 04:42:30;;;;;;;2.30;2.10;;;7.30;99.90;;;;;;5050936;28;20191;-69
2023/01/04 04:44:56;;;;;;;3.03;2.53;;;7.30;99.90;;;;;;5052216;28;20449;-68
2023/01/04 04:47:21;;;;;;;2.70;2.40;;;7.30;99.90;;;;;;5050272;28;20168;-68
2023/01/04 04:49:47;;;;;;;3.10;2.70;;;7.40;99.90;;;;;;5051858;28;20164;-69
2023/01/04 04:52:13;;;;;;;3.20;2.90;;;7.30;99.90;;;;;;5050357;28;20546;-69
2023/01/04 04:54:38;;;;;;;2.70;2.40;;;7.30;99.90;;;;;;5051510;28;20201;-68
2023/01/04 04:57:04;;;;;;;2.77;2.50;;;7.30;99.90;;;;;;5051688;28;20176;-69
2023/01/04 04:59:29;;;;;;;3.07;2.77;;;7.40;99.90;;;;;;5054689;28;20289;-69
2023/01/04 05:01:55;;;;;;;3.10;2.70;;;7.40;99.90;;;;;;5053929;28;20263;-69
2023/01/04 05:04:20;;;;;;;3.00;2.67;;;7.50;99.90;;;;;;5054865;28;20283;-68
2023/01/04 05:06:48;;;;;;;2.60;2.40;;;7.50;99.90;;;;;;5054903;28;20160;-69
2023/01/04 05:09:14;;;;;;;3.17;2.60;;;7.50;99.90;;;;;;5055263;28;20170;-69
2023/01/04 05:14:25;;;;;;;3.10;2.17;;;7.60;99.90;;;;;;5055566;28;20453;-69
2023/01/04 05:16:51;;;;;;;2.90;1.93;;;7.60;99.90;;;;;;5036902;28;20520;-69
2023/01/04 05:19:16;;;;;;;2.30;2.10;;;7.60;99.90;;;;;;5034940;28;20494;-68
2023/01/04 05:21:42;;;;;;;2.57;2.37;;;7.70;99.90;;;;;;5035399;28;20167;-69
2023/01/04 05:24:09;;;;;;;2.80;2.50;;;7.80;99.90;;;;;;5035172;28;20644;-69
2023/01/04 05:26:35;;;;;;;2.80;2.50;;;7.70;99.90;;;;;;5035219;28;20172;-69
2023/01/04 05:29:00;;;;;;;3.50;3.07;;;7.60;99.90;;;;;;5033929;28;20410;-68
2023/01/04 05:31:26;;;;;;;3.00;2.70;;;7.80;99.90;;;;;;5047460;28;20176;-69
2023/01/04 05:33:51;;;;;;;2.50;2.30;;;7.80;99.90;;;;;;5055137;28;20189;-68
2023/01/04 05:36:17;;;;;;;2.90;2.70;;;7.90;99.90;;;;;;5055092;28;20166;-69
2023/01/04 05:38:43;;;;;;;2.57;2.37;;;8.00;99.90;;;;;;5035904;28;20170;-69
2023/01/04 05:42:24;;;;;;;5.47;2.57;;;8.00;99.90;;;;;;5035096;28;20658;-69
2023/01/04 05:43:54;;;;;;;3.07;2.40;;;7.90;99.90;;;;;;5034756;28;20209;-69
2023/01/04 05:46:20;;;;;;;3.00;2.33;;;7.80;99.90;;;;;;5034865;28;20419;-69
2023/01/04 05:48:45;;;;;;;2.60;2.30;;;7.90;99.90;;;;;;5048030;28;20670;-69
2023/01/04 05:51:11;;;;;;;2.50;2.10;;;8.10;99.90;;;;;;5054630;28;20226;-69
2023/01/04 05:53:37;;;;;;;3.27;2.70;;;8.10;99.90;;;;;;5054473;28;20189;-69
2023/01/04 05:56:02;;;;;;;3.07;2.37;;;8.00;99.90;;;;;;5054742;28;20439;-69
2023/01/04 05:58:28;;;;;;;2.83;2.17;;;8.00;99.90;;;;;;5054985;28;20169;-69
2023/01/04 06:00:53;;;;;;;3.43;3.13;;;8.10;99.90;;;;;;5054917;28;20257;-69
2023/01/04 06:03:19;;;;;;;2.40;2.20;;;8.10;99.90;;;;;;5053718;28;20209;-68
2023/01/04 06:05:51;;;;;;;3.20;2.90;;;8.20;99.90;;;;;;5054405;28;20269;-69
2023/01/04 06:08:17;;;;;;;2.80;2.60;;;8.10;99.90;;;;;;5054547;28;20206;-69
2023/01/04 06:10:43;;;;;;;3.00;2.67;;;8.30;99.90;;;;;;5053926;28;20403;-69
2023/01/04 06:13:08;;;;;;;2.83;2.30;;;8.10;99.90;;;;;;5054444;28;20273;-69
2023/01/04 06:15:34;;;;;;;2.67;2.47;;;8.00;99.90;;;;;;5054426;28;20837;-70
2023/01/04 06:18:00;;;;;;;2.73;2.53;;;8.10;99.90;;;;;;5052510;28;20646;-69
2023/01/04 06:20:25;;;;;;;3.10;2.33;;;8.10;99.90;;;;;;5054086;28;20174;-69
2023/01/04 06:22:51;;;;;;;3.03;2.60;;;8.20;99.90;;;;;;5052955;28;20173;-69
2023/01/04 06:25:16;;;;;;;3.80;3.00;;;8.30;99.90;;;;;;5054390;28;20197;-68
2023/01/04 06:27:42;;;;;;;2.73;2.37;;;8.30;99.90;;;;;;5054304;28;20172;-68
2023/01/04 06:30:08;;;;;;;3.53;2.67;;;8.50;99.90;;;;;;5053693;28;20169;-67
2023/01/04 06:32:34;;;;;;;2.50;2.30;;;8.30;99.90;;;;;;5053577;28;20200;-68
2023/01/04 06:34:59;;;;;;;2.47;2.27;;;8.40;99.90;;;;;;5053354;28;20451;-69
2023/01/04 06:37:25;;;;;;;3.10;2.83;;;8.30;99.90;;;;;;5053817;28;20176;-69
2023/01/04 06:39:51;;;;;;;2.70;2.40;;;8.30;99.90;;;;;;5053380;28;20200;-69
2023/01/04 06:45:01;;;;;;;2.53;2.33;;;8.20;99.90;;;;;;5053298;28;20538;-68
2023/01/04 06:47:26;;;;;;;3.10;2.80;;;8.30;99.90;;;;;;5052249;28;20426;-68
2023/01/04 06:49:52;;;;;;;14.53;10.90;;;8.30;99.90;;;;;;5053110;28;20215;-69
2023/01/04 06:52:18;;;;;;;3.37;3.07;;;8.40;99.90;;;;;;5053396;28;20266;-69
2023/01/04 06:54:43;;;;;;;37.03;26.53;;;8.40;99.90;;;;;;5053074;28;20186;-69
2023/01/04 06:57:09;;;;;;;4.13;2.97;;;8.40;99.90;;;;;;5053334;28;20208;-70
2023/01/04 06:59:34;;;;;;;2.63;2.37;;;8.30;99.90;;;;;;5052943;28;20169;-69
2023/01/04 07:02:00;;;;;;;32.50;21.70;;;8.20;99.90;;;;;;5053105;28;20175;-69
2023/01/04 07:04:25;;;;;;;3.43;2.70;;;8.10;99.90;;;;;;5051848;28;20296;-68
2023/01/04 07:06:51;;;;;;;20.97;14.27;;;8.20;99.90;;;;;;5051779;28;20180;-69
2023/01/04 07:09:16;;;;;;;4.00;3.60;;;8.30;99.90;;;;;;5051564;28;20193;-69
2023/01/04 07:11:42;;;;;;;9.17;7.03;;;8.50;99.90;;;;;;5052907;28;20272;-68
2023/01/04 07:14:08;;;;;;;2.03;1.83;;;8.60;99.90;;;;;;5051383;28;20263;-69
2023/01/04 07:16:33;;;;;;;13.60;8.57;;;8.60;99.90;;;;;;5052624;28;20628;-69
2023/01/04 07:18:59;;;;;;;2.50;2.30;;;8.60;99.90;;;;;;5050846;28;20182;-69
2023/01/04 07:21:25;;;;;;;8.90;6.40;;;8.70;99.90;;;;;;5051648;28;20174;-69
2023/01/04 07:23:51;;;;;;;3.00;2.13;;;8.70;99.90;;;;;;5052227;28;20212;-69
2023/01/04 07:26:16;;;;;;;4.20;2.17;;;8.50;99.90;;;;;;5035766;28;20480;-69
2023/01/04 07:31:26;;;;;;;2.67;2.23;;;8.50;99.90;;;;;;5032842;28;20184;-68
2023/01/04 07:33:52;;;;;;;2.80;2.10;;;8.50;99.90;;;;;;5032414;28;20429;-70
2023/01/04 07:36:17;;;;;;;5.40;4.67;;;8.50;99.90;;;;;;5032839;28;20210;-71
2023/01/04 07:38:43;;;;;;;3.10;2.63;;;8.50;99.90;;;;;;5031039;28;20178;-69
2023/01/04 07:41:08;;;;;;;5.90;3.77;;;8.50;99.90;;;;;;5033004;28;20182;-69
2023/01/04 07:43:34;;;;;;;4.17;3.20;;;8.40;99.90;;;;;;5033264;28;20189;-69
2023/01/04 07:46:00;;;;;;;3.77;3.23;;;8.40;99.90;;;;;;5033622;28;20202;-69
2023/01/04 07:48:28;;;;;;;5.07;3.23;;;8.40;99.90;;;;;;5039254;28;20226;-69
2023/01/04 07:50:53;;;;;;;5.40;2.63;;;8.40;99.90;;;;;;5052688;28;20408;-69
2023/01/04 07:53:19;;;;;;;3.33;2.10;;;8.40;99.90;;;;;;5052262;28;20492;-68
2023/01/04 07:55:45;;;;;;;2.70;2.10;;;8.30;99.90;;;;;;5052274;28;20174;-70
2023/01/04 07:58:10;;;;;;;3.13;2.33;;;8.20;99.90;;;;;;5052140;28;20180;-70
2023/01/04 08:00:36;;;;;;;3.20;2.90;;;8.30;99.90;;;;;;5052217;28;20170;-69
2023/01/04 08:03:02;;;;;;;3.17;2.87;;;8.40;99.90;;;;;;5051502;28;20200;-70
2023/01/04 08:05:31;;;;;;;1.83;1.70;;;8.30;99.90;;;;;;5051613;28;20754;-69
2023/01/04 08:07:56;;;;;;;1.97;1.73;;;8.40;99.90;;;;;;5052155;28;20181;-69
2023/01/04 08:10:22;;;;;;;3.73;1.83;;;8.20;99.90;;;;;;5050585;28;20457;-69
2023/01/04 08:12:48;;;;;;;5.37;2.00;;;8.30;99.90;;;;;;5050757;28;20706;-70
2023/01/04 08:15:14;;;;;;;1.63;1.53;;;8.20;99.90;;;;;;5051834;28;20226;-69
2023/01/04 08:17:39;;;;;;;1.93;1.73;;;8.20;99.90;;;;;;5051771;28;20173;-68
2023/01/04 08:20:06;;;;;;;2.20;1.80;;;8.20;99.90;;;;;;5051031;28;20466;-71
2023/01/04 08:22:31;;;;;;;2.03;1.50;;;8.40;99.90;;;;;;5051521;28;20167;-71
2023/01/04 08:24:57;;;;;;;2.33;1.67;;;8.20;99.90;;;;;;5051975;28;20478;-72
2023/01/04 08:27:23;;;;;;;2.90;1.70;;;8.30;99.90;;;;;;5052032;28;20201;-71
2023/01/04 08:29:48;;;;;;;3.60;1.87;;;8.10;99.90;;;;;;5051761;28;20476;-70
2023/01/04 08:32:14;;;;;;;1.60;1.30;;;8.10;99.90;;;;;;5052057;28;20179;-69
2023/01/04 08:34:40;;;;;;;3.53;1.90;;;8.20;99.90;;;;;;5055241;28;20233;-69
2023/01/04 08:37:05;;;;;;;1.80;1.67;;;8.20;99.90;;;;;;5055655;28;20282;-71
2023/01/04 08:39:34;;;;;;;2.17;1.40;;;8.10;99.90;;;;;;5055687;28;20204;-70
2023/01/04 08:42:00;;;;;;;3.87;1.90;;;8.20;99.90;;;;;;5055577;28;20260;-70
2023/01/04 08:44:26;;;;;;;5.20;2.33;;;8.40;99.90;;;;;;5055519;28;20458;-72
2023/01/04 08:46:53;;;;;;;1.20;1.00;;;8.40;99.90;;;;;;5055514;28;20410;-69
2023/01/04 08:49:19;;;;;;;2.33;1.30;;;8.30;99.90;;;;;;5054097;28;20652;-70
2023/01/04 08:51:46;;;;;;;1.60;1.50;;;8.40;99.90;;;;;;5055811;28;20898;-69
2023/01/04 08:54:12;;;;;;;1.47;1.23;;;8.30;99.90;;;;;;5055827;28;20455;-70
2023/01/04 08:56:37;;;;;;;1.77;1.33;;;8.40;99.90;;;;;;5055659;28;20862;-68
2023/01/04 08:59:04;;;;;;;2.27;1.47;;;8.40;99.90;;;;;;5054164;28;20516;-71
2023/01/04 09:01:31;;;;;;;2.23;1.70;;;8.40;99.90;;;;;;5055767;28;20408;-75
2023/01/04 09:03:56;;;;;;;1.70;1.60;;;8.40;99.90;;;;;;5055557;28;20448;-73
2023/01/04 09:06:22;;;;;;;3.20;1.60;;;8.40;99.90;;;;;;5055793;28;20494;-71
2023/01/04 09:08:48;;;;;;;1.43;1.20;;;8.40;99.90;;;;;;5054350;28;20185;-71
2023/01/04 09:11:16;;;;;;;1.83;1.50;;;8.40;99.90;;;;;;5055838;28;20416;-72
2023/01/04 09:13:42;;;;;;;2.13;1.40;;;8.50;99.90;;;;;;5055395;28;20190;-71
2023/01/04 09:16:11;;;;;;;2.30;1.07;;;8.60;99.90;;;;;;5055626;28;20438;-71
2023/01/04 09:18:36;;;;;;;3.50;1.50;;;8.50;99.90;;;;;;5055699;28;20906;-73
2023/01/04 09:21:07;;;;;;;1.40;1.23;;;8.50;99.90;;;;;;5051226;28;20440;-74
2023/01/04 09:23:34;;;;;;;1.53;1.30;;;8.50;99.90;;;;;;5035188;28;20193;-72
2023/01/04 09:26:21;;;;;;;1.60;1.13;;;8.50;99.90;;;;;;5030420;28;20439;-72
2023/01/04 09:28:47;;;;;;;2.00;1.30;;;8.70;99.90;;;;;;5035248;28;20962;-71
2023/01/04 09:31:16;;;;;;;1.57;1.00;;;8.90;99.90;;;;;;5035225;28;20397;-71
2023/01/04 09:33:43;;;;;;;2.60;1.27;;;8.90;99.90;;;;;;5035029;28;20424;-72
2023/01/04 09:36:12;;;;;;;1.43;1.33;;;8.90;99.90;;;;;;5034686;28;20489;-73
2023/01/04 09:38:38;;;;;;;1.20;0.80;;;9.00;99.90;;;;;;5035030;28;20922;-71
2023/01/04 09:41:10;;;;;;;1.67;1.07;;;9.10;99.90;;;;;;5034435;28;20416;-71
2023/01/04 09:43:45;;;;;;;1.50;1.37;;;9.20;99.90;;;;;;5034670;28;20652;-72
2023/01/04 09:46:18;;;;;;;1.67;1.30;;;9.20;99.90;;;;;;5033717;28;20433;-71
2023/01/04 09:48:46;;;;;;;1.53;1.17;;;9.20;99.90;;;;;;5037996;28;20412;-68
2023/01/04 09:51:19;;;;;;;1.30;1.00;;;9.20;99.90;;;;;;5054114;28;20402;-69
2023/01/04 09:53:59;;;;;;;1.30;1.07;;;9.20;99.90;;;;;;5053908;28;20439;-71
2023/01/04 09:56:34;;;;;;;1.83;1.30;;;9.20;99.90;;;;;;5053151;28;20395;-69
2023/01/04 09:59:04;;;;;;;3.20;1.03;;;9.40;99.90;;;;;;5054390;28;20377;-69
2023/01/04 10:01:44;;;;;;;2.13;1.20;;;9.50;99.90;;;;;;5054279;28;20437;-68
2023/01/04 10:04:14;;;;;;;1.97;1.30;;;9.50;99.90;;;;;;5053612;28;20453;-69
2023/01/04 10:06:40;;;;;;;1.57;1.10;;;9.40;99.90;;;;;;5054292;28;20417;-72
2023/01/04 10:09:10;;;;;;;1.67;1.10;;;9.50;99.90;;;;;;5054394;28;20516;-71
2023/01/04 10:11:36;;;;;;;1.97;1.10;;;9.50;99.90;;;;;;5054116;28;20243;-70
2023/01/04 10:14:07;;;;;;;3.03;1.37;;;9.50;99.90;;;;;;5054200;28;20614;-72
2023/01/04 10:17:02;;;;;;;1.60;1.30;;;9.50;99.90;;;;;;5052826;28;20156;-71
2023/01/04 10:20:03;;;;;;;1.80;0.93;;;9.50;99.90;;;;;;5052295;28;20524;-71
2023/01/04 10:22:32;;;;;;;1.90;1.40;;;9.50;99.90;;;;;;5054025;28;20405;-70
2023/01/04 10:25:23;;;;;;;1.17;0.80;;;9.40;99.90;;;;;;5054361;28;20443;-72
2023/01/04 10:28:15;;;;;;;2.30;1.10;;;9.60;99.90;;;;;;5053073;28;20451;-72
2023/01/04 10:30:59;;;;;;;3.13;1.50;;;9.70;99.90;;;;;;5054372;28;20795;-71
2023/01/04 10:34:12;;;;;;;1.67;0.90;;;9.70;99.90;;;;;;5053974;28;20784;-70
2023/01/04 10:36:38;;;;;;;2.10;1.40;;;9.60;99.90;;;;;;5047352;28;20497;-71
2023/01/04 10:39:11;;;;;;;2.10;1.20;;;9.50;99.90;;;;;;5053669;28;20489;-70
2023/01/04 10:41:52;;;;;;;1.50;1.20;;;9.50;99.90;;;;;;5053743;28;20680;-70
2023/01/04 10:44:32;;;;;;;2.43;1.20;;;9.60;99.90;;;;;;5053560;28;20445;-69
2023/01/04 10:47:27;;;;;;;2.80;1.30;;;9.70;99.90;;;;;;5054077;28;20397;-71
2023/01/04 10:49:56;;;;;;;2.80;1.10;;;9.90;99.90;;;;;;4998584;28;20454;-70
2023/01/04 10:52:30;;;;;;;1.50;0.90;;;10.00;99.90;;;;;;5052461;28;20432;-71
2023/01/04 10:55:07;;;;;;;1.47;1.10;;;10.10;99.90;;;;;;5052202;28;20531;-70
2023/01/04 10:57:41;;;;;;;1.10;0.80;;;10.10;99.90;;;;;;5053091;28;20470;-70
2023/01/04 11:00:22;;;;;;;1.23;0.90;;;10.00;99.90;;;;;;5052975;28;20390;-69
2023/01/04 11:03:15;;;;;;;2.20;1.20;;;10.00;99.90;;;;;;5052920;28;20390;-73
2023/01/04 11:05:51;;;;;;;1.73;1.00;;;10.00;99.90;;;;;;5033422;28;21038;-71
2023/01/04 11:08:27;;;;;;;2.60;0.97;;;10.30;99.90;;;;;;5053158;28;20814;-72
2023/01/04 11:11:04;;;;;;;1.73;1.13;;;10.20;99.90;;;;;;5053248;28;20394;-70
2023/01/04 11:13:30;;;;;;;1.10;1.00;;;10.20;99.90;;;;;;5051834;28;20482;-69
2023/01/04 11:15:57;;;;;;;2.00;1.07;;;10.30;99.90;;;;;;5053303;28;20409;-70
2023/01/04 11:18:23;;;;;;;1.23;1.00;;;10.10;99.90;;;;;;5052782;28;20255;-70
2023/01/04 11:20:48;;;;;;;2.53;0.80;;;10.20;99.90;;;;;;5052460;28;20832;-70
2023/01/04 11:23:16;;;;;;;1.60;1.00;;;10.30;99.90;;;;;;5052491;28;20670;-70
2023/01/04 11:25:49;;;;;;;1.20;1.00;;;10.40;99.90;;;;;;5052403;28;20195;-69
2023/01/04 11:28:24;;;;;;;1.80;1.17;;;10.60;99.90;;;;;;5052433;28;20382;-70
2023/01/04 11:30:56;;;;;;;1.93;0.87;;;10.80;99.90;;;;;;5052518;28;20417;-70
2023/01/04 11:33:23;;;;;;;2.03;0.90;;;10.70;99.90;;;;;;5052325;28;20423;-69
2023/01/04 11:35:51;;;;;;;1.20;0.80;;;10.80;99.90;;;;;;5039136;28;20418;-70
2023/01/04 11:38:22;;;;;;;1.97;0.90;;;10.80;99.90;;;;;;5032312;28;20402;-70
2023/01/04 11:41:05;;;;;;;1.67;1.00;;;10.70;99.90;;;;;;5032770;28;20390;-69
2023/01/04 11:43:38;;;;;;;1.40;0.97;;;10.80;99.90;;;;;;5031127;28;20434;-70
2023/01/04 11:46:23;;;;;;;1.73;0.80;;;10.80;99.90;;;;;;5033643;28;20945;-70
2023/01/04 11:48:49;;;;;;;1.70;1.10;;;10.70;99.90;;;;;;5033017;28;20385;-69
2023/01/04 11:51:30;;;;;;;1.47;1.27;;;10.80;99.90;;;;;;5032656;28;20403;-70
2023/01/04 11:54:04;;;;;;;2.57;2.07;;;10.80;99.90;;;;;;5034007;28;20981;-71
2023/01/04 11:56:32;;;;;;;2.07;1.20;;;10.80;99.90;;;;;;5027238;28;20447;-71
2023/01/04 11:59:13;;;;;;;1.57;1.10;;;10.80;99.90;;;;;;5012525;28;20415;-71
2023/01/04 12:01:44;;;;;;;3.80;1.40;;;10.80;99.90;;;;;;5013602;28;20785;-71
2023/01/04 12:04:21;;;;;;;1.37;1.10;;;11.00;99.90;;;;;;5012593;28;20505;-71
2023/01/04 12:06:49;;;;;;;1.30;1.10;;;11.20;99.90;;;;;;5013281;28;20405;-72
2023/01/04 12:09:17;;;;;;;2.30;1.10;;;11.00;99.90;;;;;;5012439;28;20410;-71
2023/01/04 12:11:50;;;;;;;1.40;1.20;;;10.80;99.90;;;;;;5012197;28;20417;-71
2023/01/04 12:14:26;;;;;;;2.50;1.90;;;10.90;99.90;;;;;;5012683;28;20419;-70
2023/01/04 12:17:09;;;;;;;2.00;1.17;;;11.00;99.90;;;;;;5012893;28;20375;-69
2023/01/04 12:19:35;;;;;;;1.40;1.20;;;11.00;99.90;;;;;;5012650;28;20538;-69
2023/01/04 12:22:02;;;;;;;2.23;1.07;;;11.00;99.90;;;;;;5012977;28;20406;-70
2023/01/04 12:24:33;;;;;;;2.73;1.43;;;11.00;99.90;;;;;;5015245;28;20548;-70
2023/01/04 12:27:00;;;;;;;2.80;1.23;;;11.00;99.90;;;;;;5032724;28;20633;-70
2023/01/04 12:29:44;;;;;;;2.10;1.00;;;11.10;99.90;;;;;;5032414;28;20406;-69
2023/01/04 12:32:10;;;;;;;1.93;0.97;;;11.20;99.90;;;;;;5032764;28;20387;-72
2023/01/04 12:34:42;;;;;;;2.13;1.00;;;11.20;99.90;;;;;;5032406;28;20439;-72
2023/01/04 12:37:09;;;;;;;2.10;0.90;;;11.20;99.90;;;;;;5031964;28;20171;-72
2023/01/04 12:39:42;;;;;;;1.80;0.83;;;11.30;99.90;;;;;;5031482;28;20434;-71
2023/01/04 12:42:14;;;;;;;2.70;0.90;;;11.30;99.90;;;;;;5031663;28;20406;-72
2023/01/04 12:44:46;;;;;;;1.17;0.93;;;11.30;99.90;;;;;;5031993;28;20525;-70
2023/01/04 12:50:10;;;;;;;2.60;1.10;;;11.40;99.90;;;;;;5032866;28;20377;-71
2023/01/04 12:52:53;;;;;;;2.70;1.00;;;11.60;99.90;;;;;;5029180;28;20491;-71
2023/01/04 12:55:31;;;;;;;3.83;0.90;;;11.50;99.90;;;;;;5021795;28;20471;-72
2023/01/04 12:58:01;;;;;;;1.50;1.10;;;11.60;99.90;;;;;;5022954;28;20414;-72
2023/01/04 13:00:49;;;;;;;2.90;1.00;;;11.60;99.90;;;;;;5022409;28;20409;-70
2023/01/04 13:03:15;;;;;;;2.30;1.03;;;11.70;99.90;;;;;;5014284;28;20465;-71
2023/01/04 13:05:54;;;;;;;3.27;1.37;;;11.80;99.90;;;;;;5023276;28;20453;-73
2023/01/04 13:08:19;;;;;;;1.00;0.80;;;11.80;99.90;;;;;;5022873;28;20444;-72
2023/01/04 13:10:46;;;;;;;1.13;0.77;;;11.80;99.90;;;;;;5022889;28;20606;-72
2023/01/04 13:13:39;;;;;;;1.23;1.00;;;11.80;99.90;;;;;;5023570;28;20236;-72
2023/01/04 13:16:29;;;;;;;1.93;1.00;;;11.80;99.90;;;;;;5023158;28;20412;-72
2023/01/04 13:18:57;;;;;;;2.40;1.00;;;11.70;99.90;;;;;;5023579;28;20840;-69
2023/01/04 13:21:44;;;;;;;1.83;0.90;;;11.70;99.90;;;;;;5026193;28;20429;-73
2023/01/04 13:24:30;;;;;;;1.53;0.90;;;11.90;99.90;;;;;;5025596;28;20504;-71
2023/01/04 13:27:04;;;;;;;2.60;1.00;;;11.80;99.90;;;;;;5028727;28;20445;-68
2023/01/04 13:29:32;;;;;;;2.03;1.30;;;11.90;99.90;;;;;;5031387;28;20495;-69
2023/01/04 13:32:01;;;;;;;2.37;1.00;;;12.00;99.90;;;;;;5030385;28;20906;-71
2023/01/04 13:34:29;;;;;;;2.33;1.10;;;12.00;99.90;;;;;;5028330;28;20427;-70
2023/01/04 13:37:09;;;;;;;1.00;0.80;;;11.90;99.90;;;;;;5042449;28;20416;-70
2023/01/04 13:39:45;;;;;;;2.43;0.80;;;12.00;99.90;;;;;;5052601;28;20465;-70
2023/01/04 13:42:31;;;;;;;1.93;0.83;;;12.10;99.90;;;;;;5034690;28;20413;-70
2023/01/04 13:45:08;;;;;;;5.20;0.90;;;11.90;99.90;;;;;;5035133;28;20468;-69
2023/01/04 13:47:36;;;;;;;1.17;0.87;;;11.80;99.90;;;;;;5035109;28;20459;-73
2023/01/04 13:50:03;;;;;;;1.50;0.87;;;11.80;99.90;;;;;;5034618;28;20810;-69
2023/01/04 13:52:29;;;;;;;2.13;1.20;;;11.60;99.90;;;;;;5034776;28;20407;-70
2023/01/04 13:55:26;;;;;;;3.63;0.90;;;11.80;99.90;;;;;;5032927;28;20520;-72
2023/01/04 13:58:03;;;;;;;1.30;1.07;;;11.80;99.90;;;;;;5013169;28;20271;-71
2023/01/04 14:00:30;;;;;;;1.40;0.80;;;11.70;99.90;;;;;;5015065;28;21027;-70